logo
Rechercher aéroport 
image banner adimage banner adimage banner ad
image banner ad

EYZA - Zarasai

Situé à Zarasai, Lithuania

ICAO - EYZA, IATA -

Données fournies par Airmate  

Information générale

Coordonnées: N55°45'6" E26°15'43"
Élévation : 570 feet MSL.
Variation magnétique : 8° East
Voir autres Aéroports à Utena County

Données opérationnelles

Special qualification required
Heure actuelle UTC:
Heure actuelle locale:
Météo à : - ( 0 km )
METAR: KI69 222336Z AUTO 20010G14KT 10SM SCT020 SCT027 24/21 A2986 RMK AO1 T02430206
Voir NOTAMs / SUP AIP / TFR affectant cet aéroport [VIEW]
Fréquences de communication: [VIEW]

Pistes:

Identifiant RWYQFULongueur (ft)Largeur (ft)SurfaceLDA (ft)
0227°1444131GRASS
20207°1444131GRASS

Coordonnées de l'aéroport

Adresse: Zarasai Lithuania

Vue satellite de EYZA